CCA1535 ZLXN-ZBAA
Flight info
| Callsign | CCA1535 |
|---|---|
| Flight time | 1h 52m |
| Altitude | 33100 |
| Route | UPVOP W111 GOVSU W248 DNC W211 ZWX W219 YHD W217 VIKON W72 DUDIL W69 GUVBA |
| Aircraft | A339/H-SADE1E2E3GHIJ1J3J5M1P2RWXY/LB1 |
Departure
| Time | 2026-05-05 07:12 |
|---|---|
| Airport | Xining Caojiabao International Airport (ZLXN) |
Arrival
| Time | 2026-05-05 09:04 |
|---|---|
| Airport | Beijing Capital International Airport (ZBAA) |
| Time | Latitude | Longitude | Altitude | Speed | Heading |
|---|---|---|---|---|---|
| 2026-05-05 06:50 | 36.52307 | 102.05198 | 7228 ft | 0 kts | 266° |
| 2026-05-05 06:55 | 36.52307 | 102.05199 | 7228 ft | 0 kts | 266° |
| 2026-05-05 06:56 | 36.52307 | 102.05212 | 7228 ft | 2 kts | 266° |
| 2026-05-05 06:56 | 36.52308 | 102.05231 | 7228 ft | 2 kts | 266° |
| 2026-05-05 06:56 | 36.52309 | 102.05249 | 7228 ft | 2 kts | 266° |
| 2026-05-05 06:57 | 36.52310 | 102.05268 | 7228 ft | 2 kts | 281° |
| 2026-05-05 06:57 | 36.52301 | 102.05290 | 7228 ft | 2 kts | 316° |
| 2026-05-05 06:57 | 36.52288 | 102.05301 | 7228 ft | 2 kts | 340° |
| 2026-05-05 06:57 | 36.52274 | 102.05304 | 7228 ft | 2 kts | 4° |
| 2026-05-05 06:58 | 36.52266 | 102.05303 | 7228 ft | 0 kts | 16° |
| 2026-05-05 06:58 | 36.52261 | 102.05301 | 7228 ft | 0 kts | 18° |
| 2026-05-05 07:00 | 36.52264 | 102.05302 | 7228 ft | 1 kts | 17° |
| 2026-05-05 07:01 | 36.52278 | 102.05308 | 7228 ft | 3 kts | 17° |
| 2026-05-05 07:01 | 36.52305 | 102.05318 | 7228 ft | 4 kts | 18° |
| 2026-05-05 07:01 | 36.52340 | 102.05333 | 7228 ft | 6 kts | 19° |
| 2026-05-05 07:01 | 36.52385 | 102.05351 | 7229 ft | 7 kts | 19° |
| 2026-05-05 07:02 | 36.52428 | 102.05370 | 7229 ft | 5 kts | 16° |
| 2026-05-05 07:02 | 36.52461 | 102.05357 | 7229 ft | 5 kts | 314° |
| 2026-05-05 07:02 | 36.52482 | 102.05311 | 7229 ft | 6 kts | 291° |
| 2026-05-05 07:02 | 36.52499 | 102.05250 | 7230 ft | 8 kts | 288° |
| 2026-05-05 07:03 | 36.52531 | 102.05131 | 7230 ft | 12 kts | 289° |
| 2026-05-05 07:03 | 36.52552 | 102.05055 | 7230 ft | 14 kts | 289° |
| 2026-05-05 07:03 | 36.52589 | 102.04926 | 7230 ft | 16 kts | 289° |
| 2026-05-05 07:03 | 36.52629 | 102.04780 | 7231 ft | 18 kts | 289° |
| 2026-05-05 07:04 | 36.52673 | 102.04621 | 7231 ft | 20 kts | 289° |
| 2026-05-05 07:04 | 36.52721 | 102.04450 | 7232 ft | 21 kts | 289° |
| 2026-05-05 07:04 | 36.52771 | 102.04267 | 7232 ft | 22 kts | 289° |
| 2026-05-05 07:04 | 36.52824 | 102.04078 | 7233 ft | 23 kts | 289° |
| 2026-05-05 07:05 | 36.52875 | 102.03893 | 7234 ft | 22 kts | 289° |
| 2026-05-05 07:05 | 36.52925 | 102.03714 | 7234 ft | 21 kts | 289° |
| 2026-05-05 07:05 | 36.52987 | 102.03490 | 7235 ft | 20 kts | 289° |
| 2026-05-05 07:05 | 36.53018 | 102.03381 | 7235 ft | 19 kts | 289° |
| 2026-05-05 07:06 | 36.53061 | 102.03223 | 7235 ft | 19 kts | 289° |
| 2026-05-05 07:06 | 36.53104 | 102.03070 | 7236 ft | 18 kts | 289° |
| 2026-05-05 07:06 | 36.53146 | 102.02921 | 7236 ft | 18 kts | 289° |
| 2026-05-05 07:06 | 36.53186 | 102.02774 | 7236 ft | 17 kts | 289° |
| 2026-05-05 07:07 | 36.53226 | 102.02629 | 7237 ft | 17 kts | 289° |
| 2026-05-05 07:07 | 36.53266 | 102.02487 | 7237 ft | 17 kts | 289° |
| 2026-05-05 07:07 | 36.53303 | 102.02352 | 7237 ft | 16 kts | 289° |
| 2026-05-05 07:07 | 36.53340 | 102.02220 | 7238 ft | 15 kts | 289° |
| 2026-05-05 07:08 | 36.53375 | 102.02096 | 7238 ft | 14 kts | 289° |
| 2026-05-05 07:08 | 36.53404 | 102.01990 | 7238 ft | 9 kts | 289° |
| 2026-05-05 07:08 | 36.53419 | 102.01936 | 7238 ft | 6 kts | 289° |
| 2026-05-05 07:08 | 36.53426 | 102.01919 | 7239 ft | 1 kts | 317° |
| 2026-05-05 07:09 | 36.53441 | 102.01912 | 7239 ft | 2 kts | 343° |
| 2026-05-05 07:09 | 36.53463 | 102.01910 | 7239 ft | 3 kts | 8° |
| 2026-05-05 07:09 | 36.53490 | 102.01920 | 7239 ft | 4 kts | 19° |
| 2026-05-05 07:09 | 36.53525 | 102.01935 | 7239 ft | 5 kts | 19° |
| 2026-05-05 07:10 | 36.53565 | 102.01952 | 7239 ft | 4 kts | 26° |
| 2026-05-05 07:10 | 36.53575 | 102.02000 | 7239 ft | 4 kts | 99° |
| 2026-05-05 07:10 | 36.53569 | 102.02024 | 7239 ft | 0 kts | 109° |
| 2026-05-05 07:10 | 36.53566 | 102.02036 | 7239 ft | 12 kts | 109° |
| 2026-05-05 07:11 | 36.53461 | 102.02415 | 7238 ft | 78 kts | 109° |
| 2026-05-05 07:11 | 36.53217 | 102.03293 | 7236 ft | 134 kts | 109° |
| 2026-05-05 07:11 | 36.52860 | 102.04577 | 7250 ft | 177 kts | 110° |
| 2026-05-05 07:11 | 36.52452 | 102.06045 | 7713 ft | 180 kts | 109° |
| 2026-05-05 07:12 | 36.52080 | 102.07481 | 8403 ft | 173 kts | 108° |
| 2026-05-05 07:12 | 36.51722 | 102.08880 | 9039 ft | 166 kts | 108° |
| 2026-05-05 07:12 | 36.51372 | 102.10222 | 9436 ft | 163 kts | 108° |
| 2026-05-05 07:12 | 36.51018 | 102.11561 | 9747 ft | 165 kts | 108° |
| 2026-05-05 07:13 | 36.50660 | 102.12915 | 10075 ft | 166 kts | 109° |
| 2026-05-05 07:13 | 36.50293 | 102.14292 | 10387 ft | 169 kts | 108° |
| 2026-05-05 07:13 | 36.49915 | 102.15709 | 10591 ft | 180 kts | 109° |
| 2026-05-05 07:13 | 36.49503 | 102.17247 | 10821 ft | 192 kts | 108° |
| 2026-05-05 07:14 | 36.49083 | 102.18886 | 11057 ft | 205 kts | 101° |
| 2026-05-05 07:14 | 36.49050 | 102.20708 | 11284 ft | 219 kts | 82° |
| 2026-05-05 07:14 | 36.49336 | 102.22639 | 11524 ft | 234 kts | 79° |
| 2026-05-05 07:14 | 36.49674 | 102.24675 | 11782 ft | 249 kts | 80° |
| 2026-05-05 07:15 | 36.49783 | 102.26899 | 12052 ft | 264 kts | 95° |
| 2026-05-05 07:15 | 36.49535 | 102.29210 | 12445 ft | 276 kts | 99° |
| 2026-05-05 07:15 | 36.49228 | 102.31586 | 13017 ft | 280 kts | 99° |
| 2026-05-05 07:15 | 36.48939 | 102.33955 | 13642 ft | 282 kts | 98° |
| 2026-05-05 07:16 | 36.48662 | 102.36398 | 14257 ft | 285 kts | 98° |
| 2026-05-05 07:16 | 36.48399 | 102.38854 | 14847 ft | 289 kts | 98° |
| 2026-05-05 07:16 | 36.48140 | 102.41317 | 15435 ft | 294 kts | 98° |
| 2026-05-05 07:16 | 36.47875 | 102.43867 | 16037 ft | 298 kts | 98° |
| 2026-05-05 07:17 | 36.47611 | 102.46432 | 16648 ft | 302 kts | 98° |
| 2026-05-05 07:17 | 36.47343 | 102.49040 | 17253 ft | 307 kts | 98° |
| 2026-05-05 07:17 | 36.47062 | 102.51671 | 17871 ft | 311 kts | 99° |
| 2026-05-05 07:17 | 36.46747 | 102.54391 | 18399 ft | 320 kts | 99° |
| 2026-05-05 07:18 | 36.46418 | 102.57177 | 18697 ft | 336 kts | 99° |
| 2026-05-05 07:18 | 36.46069 | 102.60132 | 18986 ft | 353 kts | 99° |
| 2026-05-05 07:18 | 36.45710 | 102.63180 | 19273 ft | 369 kts | 99° |
| 2026-05-05 07:18 | 36.45334 | 102.66399 | 19604 ft | 384 kts | 99° |
| 2026-05-05 07:19 | 36.44946 | 102.69709 | 20169 ft | 390 kts | 99° |
| 2026-05-05 07:19 | 36.44547 | 102.73099 | 20768 ft | 396 kts | 99° |
| 2026-05-05 07:19 | 36.44149 | 102.76478 | 21343 ft | 401 kts | 99° |
| 2026-05-05 07:19 | 36.43742 | 102.79926 | 21917 ft | 407 kts | 99° |
| 2026-05-05 07:20 | 36.43330 | 102.83401 | 22445 ft | 413 kts | 99° |
| 2026-05-05 07:20 | 36.42876 | 102.86937 | 22966 ft | 418 kts | 101° |
| 2026-05-05 07:20 | 36.42349 | 102.90517 | 23524 ft | 423 kts | 101° |
| 2026-05-05 07:20 | 36.41808 | 102.94109 | 24100 ft | 427 kts | 101° |
| 2026-05-05 07:21 | 36.41257 | 102.97742 | 24650 ft | 430 kts | 101° |
| 2026-05-05 07:21 | 36.40707 | 103.01381 | 25175 ft | 434 kts | 101° |
| 2026-05-05 07:21 | 36.40151 | 103.05052 | 25663 ft | 438 kts | 101° |
| 2026-05-05 07:21 | 36.39582 | 103.08791 | 26160 ft | 442 kts | 101° |
| 2026-05-05 07:22 | 36.39013 | 103.12547 | 26639 ft | 445 kts | 101° |
| 2026-05-05 07:22 | 36.38435 | 103.16351 | 27134 ft | 448 kts | 101° |
| 2026-05-05 07:22 | 36.37858 | 103.20129 | 27595 ft | 451 kts | 101° |
| 2026-05-05 07:22 | 36.37269 | 103.23979 | 28056 ft | 455 kts | 101° |
| 2026-05-05 07:23 | 36.36680 | 103.27823 | 28503 ft | 458 kts | 100° |
| 2026-05-05 07:23 | 36.36082 | 103.31717 | 28922 ft | 461 kts | 100° |
| 2026-05-05 07:23 | 36.35485 | 103.35626 | 29347 ft | 464 kts | 99° |
| 2026-05-05 07:23 | 36.35246 | 103.39648 | 29725 ft | 467 kts | 86° |
| 2026-05-05 07:24 | 36.35693 | 103.43630 | 30084 ft | 467 kts | 72° |
| 2026-05-05 07:24 | 36.36797 | 103.47385 | 30463 ft | 465 kts | 59° |
| 2026-05-05 07:24 | 36.38495 | 103.50773 | 30822 ft | 461 kts | 46° |
| 2026-05-05 07:24 | 36.40670 | 103.53605 | 31223 ft | 454 kts | 34° |
| 2026-05-05 07:25 | 36.43228 | 103.55823 | 31725 ft | 444 kts | 22° |
| 2026-05-05 07:25 | 36.46033 | 103.57499 | 32067 ft | 444 kts | 18° |
| 2026-05-05 07:25 | 36.48806 | 103.59266 | 32342 ft | 453 kts | 22° |
| 2026-05-05 07:25 | 36.51496 | 103.61343 | 32712 ft | 459 kts | 27° |
| 2026-05-05 07:26 | 36.54090 | 103.63718 | 33039 ft | 461 kts | 32° |
| 2026-05-05 07:26 | 36.56524 | 103.66344 | 33278 ft | 465 kts | 37° |
| 2026-05-05 07:26 | 36.58805 | 103.69218 | 33466 ft | 474 kts | 41° |
| 2026-05-05 07:26 | 36.60979 | 103.72390 | 33743 ft | 481 kts | 44° |
| 2026-05-05 07:27 | 36.63088 | 103.75630 | 34076 ft | 485 kts | 45° |
| 2026-05-05 07:27 | 36.65188 | 103.78893 | 34426 ft | 486 kts | 45° |
| 2026-05-05 07:27 | 36.67301 | 103.82179 | 34813 ft | 488 kts | 44° |
| 2026-05-05 07:27 | 36.69437 | 103.85489 | 35099 ft | 490 kts | 44° |
| 2026-05-05 07:28 | 36.71572 | 103.88784 | 35447 ft | 492 kts | 44° |
| 2026-05-05 07:28 | 36.73725 | 103.92106 | 35805 ft | 492 kts | 44° |
| 2026-05-05 07:28 | 36.76588 | 103.96530 | 36417 ft | 490 kts | 44° |
| 2026-05-05 07:28 | 36.78011 | 103.98728 | 36733 ft | 489 kts | 44° |
| 2026-05-05 07:29 | 36.80156 | 104.02045 | 37087 ft | 489 kts | 44° |
| 2026-05-05 07:29 | 36.84396 | 104.08607 | 37099 ft | 487 kts | 43° |
| 2026-05-05 07:30 | 36.89574 | 104.15994 | 37092 ft | 483 kts | 40° |
| 2026-05-05 07:30 | 36.95542 | 104.24352 | 37102 ft | 484 kts | 40° |
| 2026-05-05 07:31 | 37.00000 | 104.30634 | 37117 ft | 483 kts | 40° |
| 2026-05-05 07:31 | 37.04455 | 104.36932 | 37132 ft | 482 kts | 40° |
| 2026-05-05 07:32 | 37.08878 | 104.43198 | 37126 ft | 482 kts | 40° |
| 2026-05-05 07:32 | 37.13315 | 104.49503 | 37109 ft | 481 kts | 40° |
| 2026-05-05 07:33 | 37.17716 | 104.55769 | 37082 ft | 483 kts | 40° |
| 2026-05-05 07:33 | 37.22157 | 104.62103 | 37053 ft | 482 kts | 40° |
| 2026-05-05 07:34 | 37.26547 | 104.68389 | 37042 ft | 481 kts | 41° |
| 2026-05-05 07:34 | 37.30968 | 104.74741 | 37043 ft | 482 kts | 41° |
| 2026-05-05 07:35 | 37.35377 | 104.81035 | 37042 ft | 481 kts | 40° |
| 2026-05-05 07:35 | 37.39812 | 104.87344 | 37033 ft | 482 kts | 40° |
| 2026-05-05 07:36 | 37.44229 | 104.93655 | 37012 ft | 481 kts | 40° |
| 2026-05-05 07:36 | 37.48656 | 104.99997 | 36997 ft | 480 kts | 40° |
| 2026-05-05 07:37 | 37.53041 | 105.06291 | 36972 ft | 480 kts | 40° |
| 2026-05-05 07:37 | 37.57443 | 105.12691 | 36970 ft | 483 kts | 42° |
| 2026-05-05 07:38 | 37.61578 | 105.19360 | 36960 ft | 484 kts | 44° |
| 2026-05-05 07:38 | 37.65650 | 105.26062 | 36965 ft | 484 kts | 44° |
| 2026-05-05 07:39 | 37.69754 | 105.32832 | 36960 ft | 485 kts | 44° |
| 2026-05-05 07:39 | 37.73843 | 105.39577 | 36963 ft | 485 kts | 44° |
| 2026-05-05 07:40 | 37.77954 | 105.46377 | 36968 ft | 485 kts | 43° |
| 2026-05-05 07:40 | 37.82029 | 105.53124 | 36965 ft | 483 kts | 43° |
| 2026-05-05 07:41 | 37.86120 | 105.59859 | 36956 ft | 483 kts | 43° |
| 2026-05-05 07:41 | 37.90206 | 105.66585 | 36940 ft | 485 kts | 44° |
| 2026-05-05 07:42 | 37.94307 | 105.73372 | 36938 ft | 485 kts | 44° |
| 2026-05-05 07:42 | 37.98390 | 105.80150 | 36934 ft | 484 kts | 44° |
| 2026-05-05 07:43 | 38.02470 | 105.86931 | 36933 ft | 484 kts | 43° |
| 2026-05-05 07:43 | 38.06540 | 105.93707 | 36911 ft | 483 kts | 44° |
| 2026-05-05 07:44 | 38.10616 | 106.00517 | 36899 ft | 483 kts | 43° |
| 2026-05-05 07:44 | 38.14674 | 106.07303 | 37150 ft | 485 kts | 44° |
| 2026-05-05 07:45 | 38.16710 | 106.10714 | 37399 ft | 484 kts | 43° |
| 2026-05-05 07:45 | 38.18742 | 106.14123 | 37658 ft | 485 kts | 44° |
| 2026-05-05 07:45 | 38.20790 | 106.17564 | 37919 ft | 486 kts | 43° |
| 2026-05-05 07:45 | 38.22826 | 106.20995 | 38177 ft | 483 kts | 43° |
| 2026-05-05 07:46 | 38.24844 | 106.24396 | 38445 ft | 482 kts | 43° |
| 2026-05-05 07:46 | 38.26841 | 106.27763 | 38705 ft | 483 kts | 43° |
| 2026-05-05 07:46 | 38.28888 | 106.31223 | 38912 ft | 485 kts | 44° |
| 2026-05-05 07:46 | 38.30792 | 106.34728 | 38919 ft | 489 kts | 47° |
| 2026-05-05 07:47 | 38.34187 | 106.42312 | 38927 ft | 496 kts | 55° |
| 2026-05-05 07:47 | 38.36885 | 106.50464 | 38934 ft | 505 kts | 62° |
| 2026-05-05 07:48 | 38.39243 | 106.58878 | 38936 ft | 502 kts | 59° |
| 2026-05-05 07:48 | 38.42233 | 106.66716 | 38944 ft | 490 kts | 51° |
| 2026-05-05 07:49 | 38.46049 | 106.73833 | 38948 ft | 478 kts | 42° |
| 2026-05-05 07:49 | 38.50336 | 106.80172 | 38958 ft | 474 kts | 39° |
| 2026-05-05 07:50 | 38.54720 | 106.86477 | 38950 ft | 473 kts | 39° |
| 2026-05-05 07:50 | 38.59081 | 106.92797 | 38949 ft | 473 kts | 39° |
| 2026-05-05 07:51 | 38.63409 | 106.99102 | 38944 ft | 472 kts | 39° |
| 2026-05-05 07:51 | 38.67754 | 107.05447 | 38938 ft | 471 kts | 39° |
| 2026-05-05 07:52 | 38.72047 | 107.11734 | 38944 ft | 471 kts | 39° |
| 2026-05-05 07:52 | 38.76355 | 107.18049 | 38950 ft | 472 kts | 39° |
| 2026-05-05 07:53 | 38.80695 | 107.24432 | 38941 ft | 471 kts | 39° |
| 2026-05-05 07:53 | 38.84978 | 107.30741 | 38942 ft | 472 kts | 39° |
| 2026-05-05 07:54 | 38.89253 | 107.37059 | 38929 ft | 470 kts | 39° |
| 2026-05-05 07:54 | 38.93538 | 107.43397 | 38928 ft | 471 kts | 39° |
| 2026-05-05 07:55 | 38.97833 | 107.49757 | 38923 ft | 473 kts | 39° |
| 2026-05-05 07:55 | 39.02140 | 107.56157 | 38919 ft | 471 kts | 39° |
| 2026-05-05 07:56 | 39.06422 | 107.62539 | 38935 ft | 472 kts | 38° |
| 2026-05-05 07:56 | 39.10706 | 107.68931 | 38941 ft | 473 kts | 39° |
| 2026-05-05 07:57 | 39.14990 | 107.75333 | 38946 ft | 475 kts | 39° |
| 2026-05-05 07:57 | 39.19280 | 107.81774 | 38952 ft | 475 kts | 39° |
| 2026-05-05 07:58 | 39.23581 | 107.88233 | 38951 ft | 472 kts | 39° |
| 2026-05-05 07:58 | 39.27870 | 107.94669 | 38957 ft | 473 kts | 39° |
| 2026-05-05 07:59 | 39.32127 | 108.01080 | 38957 ft | 475 kts | 39° |
| 2026-05-05 07:59 | 39.36443 | 108.07599 | 38955 ft | 475 kts | 39° |
| 2026-05-05 08:00 | 39.40719 | 108.14081 | 38950 ft | 474 kts | 39° |
| 2026-05-05 08:00 | 39.45005 | 108.20585 | 38949 ft | 474 kts | 39° |
| 2026-05-05 08:01 | 39.49256 | 108.27052 | 38946 ft | 476 kts | 39° |
| 2026-05-05 08:01 | 39.53495 | 108.33630 | 38942 ft | 480 kts | 42° |
| 2026-05-05 08:02 | 39.57485 | 108.40664 | 38940 ft | 483 kts | 44° |
| 2026-05-05 08:02 | 39.61406 | 108.47772 | 38943 ft | 483 kts | 44° |
| 2026-05-05 08:03 | 39.65292 | 108.54820 | 38944 ft | 482 kts | 44° |
| 2026-05-05 08:03 | 39.69196 | 108.61909 | 38947 ft | 482 kts | 44° |
| 2026-05-05 08:04 | 39.73084 | 108.68976 | 38949 ft | 484 kts | 44° |
| 2026-05-05 08:04 | 39.76982 | 108.76081 | 38957 ft | 484 kts | 44° |
| 2026-05-05 08:05 | 39.80870 | 108.83177 | 38957 ft | 482 kts | 44° |
| 2026-05-05 08:05 | 39.84766 | 108.90312 | 38967 ft | 482 kts | 44° |
| 2026-05-05 08:06 | 39.88649 | 108.97432 | 38970 ft | 483 kts | 44° |
| 2026-05-05 08:06 | 39.92517 | 109.04538 | 38970 ft | 484 kts | 44° |
| 2026-05-05 08:07 | 39.96408 | 109.11710 | 38972 ft | 482 kts | 44° |
| 2026-05-05 08:07 | 40.00282 | 109.18853 | 38977 ft | 484 kts | 44° |
| 2026-05-05 08:08 | 40.04123 | 109.25970 | 38968 ft | 484 kts | 44° |
| 2026-05-05 08:08 | 40.08019 | 109.33194 | 38958 ft | 485 kts | 44° |
| 2026-05-05 08:09 | 40.11871 | 109.40358 | 38949 ft | 483 kts | 44° |
| 2026-05-05 08:09 | 40.15735 | 109.47562 | 38936 ft | 483 kts | 44° |
| 2026-05-05 08:10 | 40.19583 | 109.54750 | 38921 ft | 483 kts | 44° |
| 2026-05-05 08:10 | 40.23438 | 109.61960 | 38920 ft | 485 kts | 44° |
| 2026-05-05 08:11 | 40.27298 | 109.69212 | 38901 ft | 485 kts | 45° |
| 2026-05-05 08:11 | 40.31137 | 109.76440 | 38906 ft | 482 kts | 45° |
| 2026-05-05 08:12 | 40.34993 | 109.83707 | 38901 ft | 484 kts | 45° |
| 2026-05-05 08:12 | 40.38804 | 109.90921 | 38893 ft | 483 kts | 45° |
| 2026-05-05 08:13 | 40.42577 | 109.98177 | 38891 ft | 487 kts | 47° |
| 2026-05-05 08:13 | 40.46133 | 110.05833 | 38891 ft | 490 kts | 49° |
| 2026-05-05 08:14 | 40.49594 | 110.13441 | 38886 ft | 489 kts | 49° |
| 2026-05-05 08:14 | 40.53096 | 110.21130 | 38890 ft | 489 kts | 50° |
| 2026-05-05 08:15 | 40.56593 | 110.28826 | 38900 ft | 491 kts | 50° |
| 2026-05-05 08:15 | 40.60022 | 110.36529 | 38907 ft | 493 kts | 53° |
| 2026-05-05 08:16 | 40.62682 | 110.44939 | 38923 ft | 507 kts | 65° |
| 2026-05-05 08:16 | 40.64148 | 110.54141 | 38934 ft | 521 kts | 77° |
| 2026-05-05 08:17 | 40.64350 | 110.63702 | 38944 ft | 527 kts | 85° |
| 2026-05-05 08:17 | 40.64183 | 110.73375 | 38950 ft | 527 kts | 86° |
| 2026-05-05 08:18 | 40.64042 | 110.83041 | 38950 ft | 528 kts | 85° |
| 2026-05-05 08:18 | 40.63929 | 110.92650 | 38674 ft | 526 kts | 86° |
| 2026-05-05 08:19 | 40.63878 | 110.97441 | 38403 ft | 526 kts | 86° |
| 2026-05-05 08:19 | 40.63821 | 111.02224 | 38135 ft | 525 kts | 86° |
| 2026-05-05 08:19 | 40.63761 | 111.07031 | 37868 ft | 524 kts | 86° |
| 2026-05-05 08:19 | 40.63699 | 111.11865 | 37600 ft | 524 kts | 86° |
| 2026-05-05 08:20 | 40.63634 | 111.16625 | 37331 ft | 524 kts | 86° |
| 2026-05-05 08:20 | 40.63571 | 111.21378 | 37062 ft | 523 kts | 87° |
| 2026-05-05 08:20 | 40.63504 | 111.26170 | 36807 ft | 522 kts | 86° |
| 2026-05-05 08:20 | 40.63436 | 111.30946 | 36539 ft | 523 kts | 87° |
| 2026-05-05 08:21 | 40.63364 | 111.35751 | 36275 ft | 522 kts | 87° |
| 2026-05-05 08:21 | 40.63290 | 111.40521 | 36011 ft | 522 kts | 87° |
| 2026-05-05 08:21 | 40.63213 | 111.45290 | 35746 ft | 522 kts | 87° |
| 2026-05-05 08:21 | 40.63135 | 111.50057 | 35487 ft | 522 kts | 87° |
| 2026-05-05 08:22 | 40.63055 | 111.54811 | 35222 ft | 521 kts | 88° |
| 2026-05-05 08:22 | 40.62973 | 111.59527 | 34960 ft | 518 kts | 87° |
| 2026-05-05 08:22 | 40.62886 | 111.64280 | 34708 ft | 516 kts | 88° |
| 2026-05-05 08:22 | 40.62802 | 111.69005 | 34454 ft | 514 kts | 88° |
| 2026-05-05 08:23 | 40.62715 | 111.73729 | 34201 ft | 512 kts | 88° |
| 2026-05-05 08:23 | 40.62626 | 111.78393 | 33956 ft | 510 kts | 89° |
| 2026-05-05 08:23 | 40.62535 | 111.83016 | 33717 ft | 508 kts | 89° |
| 2026-05-05 08:23 | 40.62441 | 111.87683 | 33476 ft | 506 kts | 89° |
| 2026-05-05 08:24 | 40.62357 | 111.92289 | 33247 ft | 504 kts | 88° |
| 2026-05-05 08:24 | 40.62277 | 111.96870 | 33008 ft | 503 kts | 89° |
| 2026-05-05 08:24 | 40.62177 | 112.01462 | 32775 ft | 501 kts | 89° |
| 2026-05-05 08:24 | 40.62072 | 112.05994 | 32537 ft | 498 kts | 89° |
| 2026-05-05 08:25 | 40.61969 | 112.10574 | 32303 ft | 495 kts | 89° |
| 2026-05-05 08:25 | 40.61869 | 112.15080 | 32062 ft | 493 kts | 89° |
| 2026-05-05 08:25 | 40.61768 | 112.19550 | 31838 ft | 491 kts | 89° |
| 2026-05-05 08:25 | 40.61664 | 112.24072 | 31599 ft | 488 kts | 89° |
| 2026-05-05 08:26 | 40.61560 | 112.28521 | 31371 ft | 486 kts | 89° |
| 2026-05-05 08:26 | 40.61455 | 112.32969 | 31138 ft | 484 kts | 89° |
| 2026-05-05 08:26 | 40.61347 | 112.37352 | 30991 ft | 482 kts | 89° |
| 2026-05-05 08:26 | 40.61235 | 112.41737 | 30970 ft | 482 kts | 89° |
| 2026-05-05 08:27 | 40.60976 | 112.50539 | 30970 ft | 483 kts | 91° |
| 2026-05-05 08:27 | 40.60489 | 112.59345 | 30965 ft | 483 kts | 91° |
| 2026-05-05 08:28 | 40.59974 | 112.68150 | 30962 ft | 483 kts | 92° |
| 2026-05-05 08:28 | 40.59364 | 112.76926 | 30965 ft | 484 kts | 94° |
| 2026-05-05 08:29 | 40.58654 | 112.85762 | 30963 ft | 483 kts | 92° |
| 2026-05-05 08:30 | 40.57812 | 112.98938 | 30952 ft | 483 kts | 92° |
| 2026-05-05 08:30 | 40.57231 | 113.07733 | 30948 ft | 482 kts | 92° |
| 2026-05-05 08:31 | 40.56639 | 113.16520 | 30944 ft | 489 kts | 92° |
| 2026-05-05 08:31 | 40.56334 | 113.21008 | 30938 ft | 501 kts | 92° |
| 2026-05-05 08:31 | 40.56019 | 113.25619 | 30938 ft | 506 kts | 92° |
| 2026-05-05 08:32 | 40.55374 | 113.34840 | 30939 ft | 507 kts | 92° |
| 2026-05-05 08:32 | 40.54723 | 113.44113 | 30944 ft | 507 kts | 92° |
| 2026-05-05 08:33 | 40.54068 | 113.53313 | 30841 ft | 507 kts | 92° |
| 2026-05-05 08:33 | 40.53739 | 113.57931 | 30547 ft | 505 kts | 92° |
| 2026-05-05 08:33 | 40.53408 | 113.62518 | 30134 ft | 501 kts | 92° |
| 2026-05-05 08:33 | 40.53077 | 113.67061 | 29720 ft | 496 kts | 93° |
| 2026-05-05 08:34 | 40.52753 | 113.71532 | 29320 ft | 492 kts | 93° |
| 2026-05-05 08:34 | 40.52422 | 113.76042 | 28913 ft | 489 kts | 93° |
| 2026-05-05 08:34 | 40.52102 | 113.80409 | 28444 ft | 486 kts | 93° |
| 2026-05-05 08:34 | 40.51775 | 113.84820 | 27962 ft | 483 kts | 93° |
| 2026-05-05 08:35 | 40.51446 | 113.89230 | 27479 ft | 479 kts | 94° |
| 2026-05-05 08:35 | 40.51123 | 113.93527 | 27006 ft | 475 kts | 94° |
| 2026-05-05 08:35 | 40.50799 | 113.97840 | 26523 ft | 472 kts | 94° |
| 2026-05-05 08:35 | 40.50561 | 114.02140 | 26042 ft | 468 kts | 91° |
| 2026-05-05 08:36 | 40.50381 | 114.06355 | 25559 ft | 465 kts | 91° |
| 2026-05-05 08:36 | 40.50211 | 114.10562 | 25014 ft | 463 kts | 91° |
| 2026-05-05 08:36 | 40.50041 | 114.14785 | 24380 ft | 463 kts | 91° |
| 2026-05-05 08:36 | 40.49865 | 114.19010 | 23736 ft | 463 kts | 91° |
| 2026-05-05 08:37 | 40.49687 | 114.23237 | 23100 ft | 462 kts | 91° |
| 2026-05-05 08:37 | 40.49508 | 114.27422 | 22514 ft | 461 kts | 92° |
| 2026-05-05 08:37 | 40.49324 | 114.31607 | 21928 ft | 459 kts | 92° |
| 2026-05-05 08:37 | 40.49139 | 114.35812 | 21346 ft | 457 kts | 92° |
| 2026-05-05 08:38 | 40.48953 | 114.39981 | 20765 ft | 455 kts | 92° |
| 2026-05-05 08:38 | 40.48767 | 114.44077 | 20257 ft | 451 kts | 92° |
| 2026-05-05 08:38 | 40.48581 | 114.48201 | 19762 ft | 447 kts | 92° |
| 2026-05-05 08:38 | 40.48396 | 114.52248 | 19276 ft | 443 kts | 92° |
| 2026-05-05 08:39 | 40.48210 | 114.56283 | 18800 ft | 440 kts | 92° |
| 2026-05-05 08:39 | 40.48024 | 114.60290 | 18329 ft | 436 kts | 92° |
| 2026-05-05 08:39 | 40.47840 | 114.64228 | 17883 ft | 432 kts | 92° |
| 2026-05-05 08:39 | 40.47657 | 114.68127 | 17443 ft | 428 kts | 93° |
| 2026-05-05 08:40 | 40.47472 | 114.72052 | 16995 ft | 424 kts | 93° |
| 2026-05-05 08:40 | 40.47292 | 114.75856 | 16555 ft | 420 kts | 94° |
| 2026-05-05 08:40 | 40.47106 | 114.79701 | 16088 ft | 417 kts | 94° |
| 2026-05-05 08:40 | 40.46925 | 114.83466 | 15624 ft | 413 kts | 94° |
| 2026-05-05 08:41 | 40.46742 | 114.87208 | 15162 ft | 410 kts | 94° |
| 2026-05-05 08:41 | 40.46558 | 114.90966 | 14692 ft | 407 kts | 94° |
| 2026-05-05 08:41 | 40.46376 | 114.94653 | 14227 ft | 404 kts | 94° |
| 2026-05-05 08:41 | 40.46196 | 114.98301 | 13761 ft | 401 kts | 95° |
| 2026-05-05 08:42 | 40.46015 | 115.01938 | 13304 ft | 398 kts | 95° |
| 2026-05-05 08:42 | 40.45832 | 115.05579 | 12854 ft | 395 kts | 95° |
| 2026-05-05 08:42 | 40.45650 | 115.09147 | 12586 ft | 387 kts | 95° |
| 2026-05-05 08:42 | 40.45474 | 115.12588 | 12571 ft | 372 kts | 95° |
| 2026-05-05 08:43 | 40.45303 | 115.15916 | 12561 ft | 358 kts | 95° |
| 2026-05-05 08:43 | 40.45138 | 115.19122 | 12562 ft | 344 kts | 95° |
| 2026-05-05 08:43 | 40.44980 | 115.22194 | 12555 ft | 331 kts | 95° |
| 2026-05-05 08:43 | 40.44824 | 115.25167 | 12558 ft | 318 kts | 95° |
| 2026-05-05 08:44 | 40.44673 | 115.28019 | 12566 ft | 307 kts | 95° |
| 2026-05-05 08:44 | 40.44527 | 115.30790 | 12575 ft | 302 kts | 95° |
| 2026-05-05 08:44 | 40.44381 | 115.33530 | 12586 ft | 304 kts | 95° |
| 2026-05-05 08:44 | 40.44232 | 115.36304 | 12584 ft | 303 kts | 95° |
| 2026-05-05 08:45 | 40.44085 | 115.39074 | 12592 ft | 304 kts | 95° |
| 2026-05-05 08:45 | 40.43937 | 115.41820 | 12594 ft | 304 kts | 94° |
| 2026-05-05 08:45 | 40.43789 | 115.44582 | 12588 ft | 303 kts | 94° |
| 2026-05-05 08:45 | 40.43639 | 115.47382 | 12596 ft | 304 kts | 94° |
| 2026-05-05 08:46 | 40.43489 | 115.50138 | 12599 ft | 303 kts | 95° |
| 2026-05-05 08:46 | 40.43162 | 115.52832 | 12604 ft | 302 kts | 107° |
| 2026-05-05 08:46 | 40.42423 | 115.55417 | 12548 ft | 301 kts | 118° |
| 2026-05-05 08:46 | 40.41441 | 115.57853 | 12321 ft | 300 kts | 121° |
| 2026-05-05 08:47 | 40.40418 | 115.60227 | 12084 ft | 299 kts | 121° |
| 2026-05-05 08:47 | 40.39394 | 115.62618 | 11837 ft | 297 kts | 121° |
| 2026-05-05 08:47 | 40.38391 | 115.64998 | 11604 ft | 296 kts | 121° |
| 2026-05-05 08:47 | 40.37407 | 115.67356 | 11369 ft | 294 kts | 121° |
| 2026-05-05 08:48 | 40.36431 | 115.69702 | 11129 ft | 293 kts | 121° |
| 2026-05-05 08:48 | 40.35294 | 115.71867 | 10873 ft | 285 kts | 143° |
| 2026-05-05 08:48 | 40.33572 | 115.73010 | 10630 ft | 272 kts | 172° |
| 2026-05-05 08:48 | 40.31751 | 115.73589 | 10380 ft | 273 kts | 161° |
| 2026-05-05 08:49 | 40.30083 | 115.74810 | 10139 ft | 275 kts | 151° |
| 2026-05-05 08:49 | 40.28478 | 115.76216 | 9955 ft | 271 kts | 150° |
| 2026-05-05 08:49 | 40.27118 | 115.77953 | 9923 ft | 281 kts | 122° |
| 2026-05-05 08:49 | 40.26645 | 115.80445 | 9929 ft | 290 kts | 87° |
| 2026-05-05 08:50 | 40.27174 | 115.83004 | 9951 ft | 291 kts | 68° |
| 2026-05-05 08:50 | 40.27963 | 115.85461 | 9945 ft | 292 kts | 67° |
| 2026-05-05 08:50 | 40.28734 | 115.87908 | 9925 ft | 291 kts | 68° |
| 2026-05-05 08:50 | 40.29463 | 115.90379 | 9915 ft | 291 kts | 69° |
| 2026-05-05 08:51 | 40.30162 | 115.92890 | 9920 ft | 291 kts | 70° |
| 2026-05-05 08:51 | 40.30834 | 115.95390 | 9909 ft | 292 kts | 71° |
| 2026-05-05 08:51 | 40.31490 | 115.97883 | 9910 ft | 291 kts | 71° |
| 2026-05-05 08:51 | 40.32146 | 116.00403 | 9806 ft | 291 kts | 71° |
| 2026-05-05 08:52 | 40.32803 | 116.02943 | 9642 ft | 290 kts | 71° |
| 2026-05-05 08:52 | 40.33449 | 116.05441 | 9443 ft | 290 kts | 72° |
| 2026-05-05 08:52 | 40.34095 | 116.07947 | 9267 ft | 287 kts | 72° |
| 2026-05-05 08:52 | 40.34730 | 116.10413 | 9091 ft | 283 kts | 72° |
| 2026-05-05 08:53 | 40.35358 | 116.12855 | 8862 ft | 283 kts | 72° |
| 2026-05-05 08:53 | 40.35986 | 116.15304 | 8616 ft | 284 kts | 72° |
| 2026-05-05 08:53 | 40.36613 | 116.17744 | 8350 ft | 285 kts | 73° |
| 2026-05-05 08:53 | 40.37242 | 116.20199 | 8086 ft | 285 kts | 73° |
| 2026-05-05 08:54 | 40.37879 | 116.22691 | 7826 ft | 286 kts | 73° |
| 2026-05-05 08:54 | 40.38509 | 116.25155 | 7574 ft | 286 kts | 73° |
| 2026-05-05 08:54 | 40.39148 | 116.27657 | 7321 ft | 287 kts | 73° |
| 2026-05-05 08:54 | 40.39754 | 116.30149 | 7083 ft | 286 kts | 78° |
| 2026-05-05 08:55 | 40.40089 | 116.32694 | 6902 ft | 281 kts | 88° |
| 2026-05-05 08:55 | 40.40225 | 116.35268 | 6626 ft | 282 kts | 91° |
| 2026-05-05 08:55 | 40.40316 | 116.37853 | 6279 ft | 286 kts | 91° |
| 2026-05-05 08:55 | 40.40410 | 116.40472 | 5931 ft | 290 kts | 91° |
| 2026-05-05 08:56 | 40.40514 | 116.43137 | 5650 ft | 290 kts | 90° |
| 2026-05-05 08:56 | 40.40604 | 116.45757 | 5433 ft | 282 kts | 92° |
| 2026-05-05 08:56 | 40.40631 | 116.48291 | 5303 ft | 272 kts | 93° |
| 2026-05-05 08:56 | 40.40472 | 116.50686 | 5101 ft | 257 kts | 116° |
| 2026-05-05 08:57 | 40.39458 | 116.52437 | 5009 ft | 229 kts | 154° |
| 2026-05-05 08:57 | 40.37999 | 116.52969 | 5006 ft | 209 kts | 179° |
| 2026-05-05 08:57 | 40.36589 | 116.53076 | 4979 ft | 200 kts | 180° |
| 2026-05-05 08:57 | 40.35199 | 116.53175 | 4793 ft | 198 kts | 179° |
| 2026-05-05 08:58 | 40.33810 | 116.53310 | 4525 ft | 200 kts | 178° |
| 2026-05-05 08:58 | 40.32440 | 116.53479 | 4241 ft | 197 kts | 177° |
| 2026-05-05 08:58 | 40.31075 | 116.53671 | 4002 ft | 194 kts | 176° |
| 2026-05-05 08:58 | 40.29736 | 116.53874 | 3774 ft | 189 kts | 176° |
| 2026-05-05 08:59 | 40.28462 | 116.54076 | 3529 ft | 179 kts | 176° |
| 2026-05-05 08:59 | 40.27257 | 116.54269 | 3296 ft | 171 kts | 176° |
| 2026-05-05 08:59 | 40.26090 | 116.54456 | 3068 ft | 165 kts | 176° |
| 2026-05-05 08:59 | 40.24967 | 116.54635 | 2867 ft | 158 kts | 176° |
| 2026-05-05 09:00 | 40.23880 | 116.54809 | 2668 ft | 152 kts | 176° |
| 2026-05-05 09:00 | 40.22860 | 116.54971 | 2476 ft | 145 kts | 176° |
| 2026-05-05 09:00 | 40.21873 | 116.55128 | 2286 ft | 138 kts | 176° |
| 2026-05-05 09:00 | 40.20935 | 116.55276 | 2110 ft | 133 kts | 176° |
| 2026-05-05 09:01 | 40.20002 | 116.55424 | 1946 ft | 134 kts | 176° |
| 2026-05-05 09:01 | 40.19086 | 116.55567 | 1798 ft | 133 kts | 175° |
| 2026-05-05 09:01 | 40.18157 | 116.55714 | 1643 ft | 133 kts | 176° |
| 2026-05-05 09:01 | 40.17235 | 116.55860 | 1473 ft | 133 kts | 177° |
| 2026-05-05 09:02 | 40.16319 | 116.56004 | 1307 ft | 132 kts | 174° |
| 2026-05-05 09:02 | 40.15404 | 116.56149 | 1129 ft | 132 kts | 177° |
| 2026-05-05 09:02 | 40.14486 | 116.56290 | 959 ft | 132 kts | 172° |
| 2026-05-05 09:02 | 40.13561 | 116.56438 | 786 ft | 132 kts | 172° |
| 2026-05-05 09:03 | 40.12649 | 116.56580 | 616 ft | 133 kts | 170° |
| 2026-05-05 09:03 | 40.11720 | 116.56727 | 447 ft | 133 kts | 172° |
| 2026-05-05 09:03 | 40.10793 | 116.56874 | 275 ft | 134 kts | 173° |
| 2026-05-05 09:03 | 40.09860 | 116.57021 | 138 ft | 133 kts | 174° |
| 2026-05-05 09:04 | 40.09010 | 116.57155 | 131 ft | 93 kts | 172° |
| 2026-05-05 09:04 | 40.08672 | 116.57208 | 131 ft | 30 kts | 173° |
| 2026-05-05 09:04 | 40.08502 | 116.57235 | 131 ft | 18 kts | 170° |
| 2026-05-05 09:04 | 40.08379 | 116.57293 | 131 ft | 18 kts | 150° |
| 2026-05-05 09:05 | 40.08301 | 116.57362 | 131 ft | 4 kts | 138° |
| 2026-05-05 09:05 | 40.08289 | 116.57392 | 131 ft | 6 kts | 105° |
| 2026-05-05 09:05 | 40.08289 | 116.57458 | 131 ft | 8 kts | 84° |
| 2026-05-05 09:05 | 40.08297 | 116.57546 | 131 ft | 12 kts | 83° |
| 2026-05-05 09:06 | 40.08309 | 116.57683 | 131 ft | 17 kts | 83° |
| 2026-05-05 09:06 | 40.08326 | 116.57862 | 131 ft | 22 kts | 83° |
| 2026-05-05 09:06 | 40.08346 | 116.58079 | 131 ft | 25 kts | 83° |
| 2026-05-05 09:06 | 40.08367 | 116.58303 | 131 ft | 24 kts | 83° |
| 2026-05-05 09:07 | 40.08387 | 116.58521 | 131 ft | 23 kts | 83° |
| 2026-05-05 09:07 | 40.08406 | 116.58733 | 131 ft | 23 kts | 82° |
| 2026-05-05 09:07 | 40.08425 | 116.58936 | 131 ft | 18 kts | 83° |
| 2026-05-05 09:07 | 40.08438 | 116.59081 | 131 ft | 6 kts | 83° |
| 2026-05-05 09:08 | 40.08440 | 116.59122 | 131 ft | 2 kts | 108° |
| 2026-05-05 09:08 | 40.08417 | 116.59146 | 131 ft | 5 kts | 150° |
| 2026-05-05 09:08 | 40.08374 | 116.59158 | 131 ft | 7 kts | 173° |
| 2026-05-05 09:08 | 40.08305 | 116.59169 | 131 ft | 11 kts | 173° |
| 2026-05-05 09:09 | 40.08210 | 116.59184 | 131 ft | 15 kts | 172° |
| 2026-05-05 09:09 | 40.08092 | 116.59203 | 131 ft | 18 kts | 172° |
| 2026-05-05 09:09 | 40.07956 | 116.59225 | 131 ft | 20 kts | 173° |
| 2026-05-05 09:09 | 40.07810 | 116.59247 | 131 ft | 20 kts | 172° |
| 2026-05-05 09:10 | 40.07669 | 116.59269 | 131 ft | 20 kts | 172° |
| 2026-05-05 09:10 | 40.07530 | 116.59291 | 131 ft | 15 kts | 173° |
| 2026-05-05 09:10 | 40.07436 | 116.59306 | 131 ft | 7 kts | 172° |
| 2026-05-05 09:10 | 40.07382 | 116.59335 | 131 ft | 9 kts | 147° |
| 2026-05-05 09:11 | 40.07332 | 116.59378 | 131 ft | 5 kts | 147° |
| 2026-05-05 09:11 | 40.07290 | 116.59396 | 131 ft | 7 kts | 170° |
| 2026-05-05 09:11 | 40.07230 | 116.59406 | 131 ft | 10 kts | 172° |
| 2026-05-05 09:11 | 40.07139 | 116.59420 | 131 ft | 15 kts | 173° |
| 2026-05-05 09:12 | 40.07018 | 116.59440 | 131 ft | 19 kts | 173° |
| 2026-05-05 09:12 | 40.06878 | 116.59461 | 131 ft | 20 kts | 173° |
| 2026-05-05 09:12 | 40.06737 | 116.59483 | 131 ft | 20 kts | 173° |
| 2026-05-05 09:12 | 40.06598 | 116.59506 | 131 ft | 19 kts | 173° |
| 2026-05-05 09:13 | 40.06460 | 116.59527 | 131 ft | 20 kts | 173° |
| 2026-05-05 09:13 | 40.06313 | 116.59550 | 131 ft | 21 kts | 173° |
| 2026-05-05 09:13 | 40.06159 | 116.59574 | 131 ft | 22 kts | 173° |
| 2026-05-05 09:13 | 40.05999 | 116.59599 | 131 ft | 22 kts | 172° |
| 2026-05-05 09:14 | 40.05843 | 116.59624 | 131 ft | 21 kts | 173° |
| 2026-05-05 09:14 | 40.05692 | 116.59647 | 131 ft | 21 kts | 173° |
| 2026-05-05 09:14 | 40.05557 | 116.59668 | 131 ft | 12 kts | 173° |
| 2026-05-05 09:14 | 40.05493 | 116.59679 | 131 ft | 3 kts | 173° |
| 2026-05-05 09:15 | 40.05472 | 116.59674 | 131 ft | 3 kts | 208° |
| 2026-05-05 09:15 | 40.05453 | 116.59644 | 131 ft | 3 kts | 243° |
| 2026-05-05 09:15 | 40.05451 | 116.59617 | 131 ft | 3 kts | 286° |
| 2026-05-05 09:15 | 40.05473 | 116.59592 | 131 ft | 4 kts | 335° |
| 2026-05-05 09:16 | 40.05503 | 116.59583 | 131 ft | 5 kts | 353° |
| 2026-05-05 09:16 | 40.05528 | 116.59578 | 131 ft | 0 kts | 347° |
| 2026-05-05 09:16 | 40.05534 | 116.59571 | 131 ft | 1 kts | 300° |
| 2026-05-05 09:16 | 40.05531 | 116.59554 | 131 ft | 2 kts | 252° |
| 2026-05-05 09:17 | 40.05528 | 116.59532 | 131 ft | 2 kts | 262° |
| 2026-05-05 09:17 | 40.05525 | 116.59512 | 131 ft | 2 kts | 262° |
| 2026-05-05 09:17 | 40.05524 | 116.59501 | 131 ft | 1 kts | 262° |
| 2026-05-05 09:17 | 40.05523 | 116.59490 | 131 ft | 1 kts | 262° |
| 2026-05-05 09:18 | 40.05522 | 116.59482 | 131 ft | 0 kts | 262° |